Time;durP1;ratioP1;P1;durP2;ratioP2;P2;SDS_P1;SDS_P2;PMS_P1;PMS_P2;Temp;Humidity;BMP_temperature;BMP_pressure;BME280_temperature;BME280_humidity;BME280_pressure;Samples;Min_cycle;Max_cycle;Signal;HPM_P1;HPM_P2
2022/02/03 00:05:05;;;;;;;103.60;43.00;;;;;;;3.45;72.87;98515.80;25176;1314;3052785;-73
2022/02/03 00:07:55;;;;;;;104.60;44.10;;;;;;;3.36;73.26;98514.63;25161;1314;3071586;-70
2022/02/03 00:24:53;;;;;;;100.40;42.60;;;;;;;4.47;69.56;98492.66;24893;1323;3053118;-71
2022/02/03 00:28:12;;;;;;;107.80;41.80;;;;;;;4.19;70.38;98502.55;24841;1324;3050781;-70
2022/02/03 00:36:07;;;;;;;102.80;42.10;;;;;;;3.82;71.65;98479.38;25113;1316;3053478;-74
2022/02/03 00:49:50;;;;;;;110.50;43.10;;;;;;;3.30;73.58;98488.63;25133;1314;3059010;-69
2022/02/03 00:52:22;;;;;;;96.30;36.70;;;;;;;3.30;74.06;98493.97;25095;1316;3050493;-73
2022/02/03 00:54:51;;;;;;;86.50;36.50;;;;;;;3.92;72.24;98491.73;25194;1315;3026675;-73
2022/02/03 00:57:49;;;;;;;97.20;37.70;;;;;;;4.51;70.04;98492.23;25174;1316;3026671;-70
2022/02/03 01:00:19;;;;;;;100.60;41.20;;;;;;;4.62;69.24;98482.68;25161;1315;3051517;-70
2022/02/03 01:02:58;;;;;;;101.50;44.50;;;;;;;4.53;69.48;98482.43;25148;1316;3026253;-69
2022/02/03 01:05:28;;;;;;;111.30;49.60;;;;;;;4.28;70.25;98485.60;25203;1316;3051806;-69
2022/02/03 01:07:59;;;;;;;118.40;51.70;;;;;;;4.11;70.84;98486.13;25170;1316;3026899;-71
2022/02/03 01:10:32;;;;;;;121.40;51.00;;;;;;;3.92;71.61;98484.94;25116;1316;3026793;-72
2022/02/03 01:13:09;;;;;;;121.20;50.40;;;;;;;3.74;72.26;98484.80;25153;1315;3029101;-70
2022/02/03 01:15:47;;;;;;;104.20;48.10;;;;;;;3.65;72.75;98484.17;25126;1315;3050447;-67
2022/02/03 01:34:46;;;;;;;109.00;44.80;;;;;;;4.47;70.25;98477.55;25111;1316;3049913;-68
2022/02/03 01:45:39;;;;;;;133.90;51.60;;;;;;;3.90;72.27;98479.88;25140;1316;3071554;-70
2022/02/03 01:53:46;;;;;;;162.00;56.00;;;;;;;3.51;72.93;98480.17;25186;1312;3052047;-71
2022/02/03 01:56:16;;;;;;;142.00;51.70;;;;;;;3.30;73.71;98480.99;25146;1313;3030364;-70
2022/02/03 01:58:45;;;;;;;121.60;44.60;;;;;;;3.22;74.35;98484.14;25135;1313;3052946;-73
2022/02/03 02:01:31;;;;;;;137.50;49.40;;;;;;;3.67;73.76;98480.43;25217;1312;3026380;-71
2022/02/03 02:04:06;;;;;;;131.80;51.90;;;;;;;4.31;71.57;98474.19;25162;1315;3049294;-72
2022/02/03 02:07:12;;;;;;;141.40;52.30;;;;;;;4.27;70.99;98475.95;25160;1312;3052869;-69
2022/02/03 02:12:58;;;;;;;160.70;60.50;;;;;;;3.78;72.49;98480.98;25169;1313;3058114;-71
2022/02/03 02:43:58;;;;;;;146.80;58.70;;;;;;;3.72;72.70;98471.92;25192;1312;3054745;-74
2022/02/03 02:46:36;;;;;;;164.00;59.10;;;;;;;3.58;73.19;98470.48;25146;1312;3072501;-67
2022/02/03 02:49:21;;;;;;;165.80;62.60;;;;;;;3.45;73.63;98474.40;25119;1312;3048833;-75
2022/02/03 02:51:57;;;;;;;151.80;59.90;;;;;;;3.34;74.19;98471.98;25169;1312;3052692;-69
2022/02/03 02:55:34;;;;;;;164.90;62.10;;;;;;;3.26;74.66;98469.08;25217;1312;3051735;-69
2022/02/03 03:37:27;;;;;;;144.60;52.70;;;;;;;4.19;71.81;98502.01;25128;1316;3052480;-74
2022/02/03 03:39:59;;;;;;;137.30;55.10;;;;;;;4.18;71.59;98508.63;25160;1313;3054111;-73
2022/02/03 03:42:33;;;;;;;140.80;59.20;;;;;;;4.01;71.74;98514.52;25166;1313;3028445;-69
2022/02/03 03:45:09;;;;;;;149.30;58.60;;;;;;;3.54;72.72;98515.89;25180;1315;3051470;-71
2022/02/03 03:47:39;;;;;;;144.70;62.20;;;;;;;3.29;73.62;98518.25;25138;1316;3054908;-71
2022/02/03 03:50:14;;;;;;;149.70;60.70;;;;;;;3.17;74.17;98519.81;25100;1316;3027106;-73
2022/02/03 03:52:58;;;;;;;166.00;62.80;;;;;;;3.03;74.65;98516.98;25188;1315;3069480;-69
2022/02/03 03:58:22;;;;;;;158.90;59.70;;;;;;;2.73;75.96;98514.52;25156;1316;3051941;-72
2022/02/03 04:42:30;;;;;;;137.80;51.90;;;;;;;3.82;71.74;98553.88;25148;1316;3026919;-70
2022/02/03 04:56:27;;;;;;;161.80;59.50;;;;;;;3.15;73.60;98573.38;25121;1316;3051865;-71
2022/02/03 05:08:28;;;;;;;80.60;32.20;;;;;;;2.86;75.09;98582.77;25189;1313;3054301;-70
2022/02/03 05:11:28;;;;;;;76.40;30.60;;;;;;;3.75;72.22;98574.43;25095;1315;3071169;-69
2022/02/03 05:45:07;;;;;;;62.70;25.20;;;;;;;2.96;74.17;98614.71;25153;1312;3056212;-73
2022/02/03 06:04:33;;;;;;;57.80;27.10;;;;;;;3.81;70.96;98622.89;25155;1313;3052266;-70
2022/02/03 06:11:53;;;;;;;65.80;29.90;;;;;;;3.48;72.32;98631.10;25180;1316;3052773;-73
2022/02/03 06:29:42;;;;;;;69.40;29.60;;;;;;;3.26;73.43;98620.16;25127;1318;3057498;-72
2022/02/03 06:32:12;;;;;;;60.80;24.70;;;;;;;3.32;73.04;98610.35;25171;1312;3049317;-72
2022/02/03 06:34:41;;;;;;;69.20;28.90;;;;;;;3.89;71.37;98604.83;25115;1313;3026955;-70
2022/02/03 06:37:10;;;;;;;80.20;34.30;;;;;;;4.37;69.48;98608.60;25122;1316;3058552;-72
2022/02/03 06:39:39;;;;;;;86.60;37.00;;;;;;;4.48;68.95;98611.55;25139;1313;3026242;-76
2022/02/03 06:42:09;;;;;;;79.00;33.80;;;;;;;4.34;69.07;98614.33;25198;1315;3026807;-73
2022/02/03 06:44:42;;;;;;;90.30;39.20;;;;;;;4.20;69.76;98609.92;25170;1315;3057798;-69
2022/02/03 06:47:33;;;;;;;101.00;44.50;;;;;;;4.04;70.07;98613.84;25163;1316;3049439;-71
2022/02/03 06:52:45;;;;;;;115.30;46.80;;;;;;;3.92;70.28;98622.52;25186;1312;3026358;-70
2022/02/03 06:55:28;;;;;;;;;;;;;;;3.51;71.53;98629.95;25151;1318;3068581;-69
2022/02/03 06:58:10;;;;;;;100.10;41.90;;;;;;;3.37;72.29;98630.93;25173;1318;3049600;-72
2022/02/03 07:00:45;;;;;;;110.50;43.90;;;;;;;3.36;72.64;98630.09;25127;1312;3052832;-73
2022/02/03 07:03:19;;;;;;;109.40;45.90;;;;;;;3.25;72.63;98637.67;25126;1313;3051645;-73
2022/02/03 07:05:48;;;;;;;115.80;47.60;;;;;;;3.20;73.46;98643.45;25181;1316;3056627;-70
2022/02/03 07:08:19;;;;;;;107.10;43.70;;;;;;;3.17;73.62;98644.09;25136;1316;3028188;-75
2022/02/03 07:10:51;;;;;;;85.30;36.10;;;;;;;3.23;73.25;98643.30;25099;1313;3055059;-72
2022/02/03 07:13:20;;;;;;;67.40;27.80;;;;;;;3.19;73.04;98631.88;25186;1316;3027955;-73
2022/02/03 07:15:50;;;;;;;80.70;32.20;;;;;;;3.00;73.57;98626.64;25129;1313;3026917;-73
2022/02/03 07:18:19;;;;;;;66.50;26.00;;;;;;;2.78;74.54;98628.77;25176;1316;3026455;-73
2022/02/03 07:20:49;;;;;;;60.70;26.40;;;;;;;3.35;73.74;98628.23;25131;1313;3056916;-71
2022/02/03 07:23:17;;;;;;;64.50;28.70;;;;;;;4.01;71.58;98635.98;25133;1316;3026553;-75
2022/02/03 07:25:46;;;;;;;70.50;30.50;;;;;;;3.95;70.84;98638.70;25193;1314;3052104;-71
2022/02/03 07:28:15;;;;;;;69.00;32.80;;;;;;;3.89;71.07;98632.39;25133;1313;3026005;-74
2022/02/03 07:30:44;;;;;;;69.30;31.90;;;;;;;3.83;71.42;98637.84;25181;1313;3026528;-74
2022/02/03 07:33:13;;;;;;;66.50;30.80;;;;;;;3.77;71.27;98644.02;25112;1316;3054244;-72
2022/02/03 07:35:45;;;;;;;79.60;34.10;;;;;;;3.73;71.64;98646.66;25188;1313;3026592;-72
2022/02/03 07:38:14;;;;;;;76.20;33.70;;;;;;;3.61;71.66;98645.77;25193;1314;3052314;-74
2022/02/03 07:40:43;;;;;;;74.10;31.20;;;;;;;3.52;71.96;98652.60;25132;1313;3026648;-76
2022/02/03 07:43:12;;;;;;;69.90;29.20;;;;;;;3.32;72.70;98652.59;25172;1316;3047416;-70
2022/02/03 07:45:41;;;;;;;73.90;31.60;;;;;;;3.36;72.82;98647.76;25137;1316;3028447;-74
2022/02/03 07:48:10;;;;;;;78.00;31.50;;;;;;;3.23;73.00;98653.19;25172;1315;3070462;-74
2022/02/03 07:50:39;;;;;;;80.80;31.90;;;;;;;3.09;73.63;98656.89;25170;1319;3027619;-75
2022/02/03 07:53:11;;;;;;;84.70;32.50;;;;;;;2.93;74.27;98654.79;25132;1316;3029506;-72
2022/02/03 07:55:40;;;;;;;78.10;29.50;;;;;;;3.00;74.66;98654.66;25179;1313;3029494;-71
2022/02/03 07:58:09;;;;;;;66.20;28.00;;;;;;;3.58;73.67;98651.27;25167;1316;3048730;-73
2022/02/03 08:00:38;;;;;;;75.80;30.00;;;;;;;4.34;70.83;98649.17;25129;1315;3026199;-73
2022/02/03 08:03:11;;;;;;;75.60;32.50;;;;;;;4.62;69.82;98654.90;25100;1313;3068165;-73
2022/02/03 08:05:45;;;;;;;68.30;31.20;;;;;;;4.54;69.62;98651.31;25166;1316;3052199;-73
2022/02/03 08:08:25;;;;;;;79.70;34.20;;;;;;;4.52;69.49;98649.17;25162;1316;3026536;-71
2022/02/03 08:10:59;;;;;;;86.90;35.00;;;;;;;4.28;70.15;98658.63;25138;1316;3055237;-73
2022/02/03 08:13:35;;;;;;;84.40;35.90;;;;;;;4.23;70.37;98664.58;25155;1316;3059279;-71
2022/02/03 08:16:13;;;;;;;87.80;37.90;;;;;;;4.21;70.43;98666.39;25176;1316;3052176;-72
2022/02/03 08:18:46;;;;;;;90.90;37.80;;;;;;;4.15;70.80;98664.95;25190;1313;3053226;-74
2022/02/03 08:21:17;;;;;;;79.70;34.00;;;;;;;4.17;70.81;98660.33;25214;1316;3055319;-74
2022/02/03 08:31:25;;;;;;;89.00;36.00;;;;;;;3.59;72.31;98666.48;25150;1313;3026392;-74
2022/02/03 08:33:55;;;;;;;103.90;39.50;;;;;;;3.39;72.83;98667.03;25187;1313;3026397;-72
2022/02/03 08:36:25;;;;;;;99.80;39.00;;;;;;;3.25;73.61;98666.56;25183;1313;3027599;-71
2022/02/03 08:38:58;;;;;;;95.10;33.40;;;;;;;3.32;73.71;98655.89;25194;1316;3026410;-71
2022/02/03 08:41:29;;;;;;;101.00;39.50;;;;;;;3.94;72.60;98656.59;25176;1316;3026903;-73
2022/02/03 08:43:58;;;;;;;114.80;39.50;;;;;;;4.63;69.96;98660.25;25143;1313;3027600;-71
2022/02/03 08:46:27;;;;;;;118.90;42.00;;;;;;;4.82;69.03;98668.16;25139;1313;3026589;-73
2022/02/03 08:48:57;;;;;;;105.90;39.90;;;;;;;4.77;68.98;98672.05;25146;1316;3050658;-70
2022/02/03 08:51:26;;;;;;;100.90;40.30;;;;;;;4.52;69.40;98670.85;25200;1313;3026635;-71
2022/02/03 08:53:57;;;;;;;95.80;38.70;;;;;;;4.12;70.32;98668.92;25131;1313;3029392;-74
2022/02/03 08:56:38;;;;;;;107.60;39.30;;;;;;;3.75;71.59;98663.35;24991;1312;3267929;-77
2022/02/03 09:59:50;;;;;;;79.80;31.30;;;;;;;3.77;73.30;98673.11;25145;1312;3026627;-72
2022/02/03 10:02:26;;;;;;;74.50;30.30;;;;;;;3.73;73.23;98668.80;25146;1313;3060275;-70
2022/02/03 10:04:59;;;;;;;81.20;31.90;;;;;;;3.61;73.44;98671.77;25146;1313;3048275;-74
2022/02/03 10:07:32;;;;;;;76.90;32.80;;;;;;;3.27;74.45;98675.16;25166;1312;3026896;-71
2022/02/03 10:10:08;;;;;;;81.40;32.50;;;;;;;3.26;74.69;98674.33;25127;1312;3053211;-71
2022/02/03 10:12:38;;;;;;;91.50;33.10;;;;;;;3.07;75.17;98679.13;25183;1312;3068446;-72
2022/02/03 10:15:11;;;;;;;67.70;26.40;;;;;;;2.81;76.36;98679.17;25164;1312;3026939;-67
2022/02/03 10:17:46;;;;;;;70.60;28.50;;;;;;;2.54;77.26;98676.98;25183;1313;3051127;-74
2022/02/03 10:20:20;;;;;;;55.70;23.70;;;;;;;2.45;78.12;98678.05;25153;1315;3053322;-74
2022/02/03 10:22:59;;;;;;;61.50;25.00;;;;;;;3.18;76.68;98671.01;25132;1313;3058186;-71
2022/02/03 10:25:30;;;;;;;67.00;26.70;;;;;;;3.58;74.49;98664.11;25151;1312;3051572;-72
2022/02/03 10:28:03;;;;;;;65.50;27.70;;;;;;;3.67;73.88;98662.84;25189;1313;3026638;-73
2022/02/03 10:30:46;;;;;;;66.40;29.20;;;;;;;3.48;74.29;98663.67;25139;1313;3026861;-70
2022/02/03 10:33:15;;;;;;;70.90;28.70;;;;;;;3.45;74.61;98660.33;25085;1315;3069535;-75
2022/02/03 10:35:49;;;;;;;77.80;31.60;;;;;;;3.38;74.80;98663.08;25199;1313;3026985;-74
2022/02/03 10:42:01;;;;;;;83.80;32.60;;;;;;;3.61;74.45;98667.25;25235;1312;3026004;-71
2022/02/03 11:05:44;;;;;;;94.30;35.70;;;;;;;3.85;73.01;98664.79;25172;1316;3049268;-73
2022/02/03 11:08:18;;;;;;;;;;;;;;;3.51;74.13;98668.88;25164;1316;3056726;-69
2022/02/03 11:10:54;;;;;;;105.00;37.60;;;;;;;3.40;74.99;98668.20;25135;1313;3051705;-74
2022/02/03 11:13:30;;;;;;;105.00;39.60;;;;;;;3.32;75.16;98668.00;25172;1315;3059424;-71
2022/02/03 11:16:04;;;;;;;110.20;41.80;;;;;;;3.33;75.28;98667.10;25164;1316;3049619;-71
2022/02/03 11:18:49;;;;;;;70.00;27.10;;;;;;;3.35;75.94;98669.98;25163;1315;3054077;-75
2022/02/03 11:21:18;;;;;;;103.00;33.30;;;;;;;3.92;74.19;98666.34;25138;1315;3026782;-74
2022/02/03 11:23:53;;;;;;;106.90;37.90;;;;;;;4.44;72.30;98662.04;25155;1316;3049084;-75
2022/02/03 11:26:35;;;;;;;92.90;34.90;;;;;;;4.73;71.50;98658.02;25105;1313;3054659;-75
2022/02/03 11:42:33;;;;;;;107.50;38.30;;;;;;;3.46;74.98;98667.39;25148;1313;3058663;-74
2022/02/03 11:57:54;;;;;;;89.30;36.60;;;;;;;4.80;70.67;98664.10;25109;1315;3049699;-73
2022/02/03 12:14:15;;;;;;;103.90;37.80;;;;;;;3.62;74.48;98677.75;25201;1315;3058698;-72
2022/02/03 12:16:58;;;;;;;98.60;37.00;;;;;;;3.44;75.39;98675.77;25172;1313;3049360;-74
2022/02/03 12:19:45;;;;;;;77.50;26.90;;;;;;;3.59;75.18;98677.06;25143;1316;3055367;-73
2022/02/03 12:22:36;;;;;;;77.10;30.20;;;;;;;4.45;73.09;98675.50;25173;1316;3054893;-71
2022/02/03 12:25:31;;;;;;;65.30;25.00;;;;;;;4.73;71.06;98681.63;25143;1316;3067898;-69
2022/02/03 12:38:51;;;;;;;81.90;31.30;;;;;;;3.63;74.53;98702.88;25177;1316;3049864;-73
2022/02/03 12:41:35;;;;;;;90.00;33.70;;;;;;;3.36;75.65;98703.69;25190;1313;3051806;-74
2022/02/03 12:44:17;;;;;;;79.00;31.60;;;;;;;3.33;76.17;98709.00;25234;1313;3052067;-70
2022/02/03 12:46:47;;;;;;;71.00;25.80;;;;;;;3.10;76.89;98718.77;25216;1314;3068895;-74
2022/02/03 12:49:20;;;;;;;86.10;28.70;;;;;;;3.51;76.43;98714.27;25150;1315;3027496;-73
2022/02/03 12:51:50;;;;;;;100.50;33.70;;;;;;;3.63;75.58;98710.83;25202;1315;3052693;-68
2022/02/03 12:54:19;;;;;;;99.30;34.40;;;;;;;3.63;75.57;98711.69;25230;1312;3026129;-73
2022/02/03 12:56:48;;;;;;;110.00;38.80;;;;;;;3.70;75.45;98714.48;25222;1315;3026501;-71
2022/02/03 12:59:24;;;;;;;96.80;36.70;;;;;;;3.55;75.44;98717.41;25173;1312;3051970;-72
2022/02/03 13:01:53;;;;;;;97.20;33.90;;;;;;;3.21;76.34;98721.98;25188;1315;3051980;-68
2022/02/03 13:04:23;;;;;;;96.30;37.90;;;;;;;3.11;76.83;98729.48;25219;1313;3026275;-72
2022/02/03 13:07:01;;;;;;;84.40;31.00;;;;;;;3.07;76.96;98732.77;25232;1316;3052374;-71
2022/02/03 13:09:41;;;;;;;91.60;32.10;;;;;;;3.10;76.56;98734.20;25135;1316;3051868;-71
2022/02/03 13:12:19;;;;;;;86.50;32.30;;;;;;;3.68;75.81;98726.19;25265;1313;3055270;-69
2022/02/03 13:14:53;;;;;;;101.70;35.90;;;;;;;4.08;74.39;98720.55;25205;1313;3052114;-71
2022/02/03 13:17:32;;;;;;;;;;;;;;;4.07;73.92;98719.42;25266;1315;3051303;-73
2022/02/03 13:20:14;;;;;;;96.00;35.10;;;;;;;3.40;75.85;98725.66;25242;1315;3052700;-65
2022/02/03 13:22:53;;;;;;;76.80;28.90;;;;;;;3.30;76.25;98725.56;25521;1312;3071468;-72
2022/02/03 13:25:31;;;;;;;94.70;33.20;;;;;;;2.97;77.27;98730.77;25611;1312;3051876;-73
2022/02/03 13:28:09;;;;;;;108.20;33.90;;;;;;;2.81;78.04;98728.11;25699;1315;3052311;-71
2022/02/03 13:33:25;;;;;;;69.00;23.00;;;;;;;2.50;79.05;98728.67;25190;1312;3059431;-69
2022/02/03 13:36:07;;;;;;;60.30;22.20;;;;;;;3.11;78.30;98727.90;25195;1315;3048952;-73
2022/02/03 13:41:14;;;;;;;69.80;26.30;;;;;;;3.52;75.49;98721.51;25183;1312;3026824;-68
2022/02/03 13:43:44;;;;;;;99.90;32.90;;;;;;;3.16;76.30;98727.53;25106;1313;3051190;-70
2022/02/03 13:46:27;;;;;;;116.30;37.60;;;;;;;2.65;78.14;98731.01;25130;1312;3026742;-67
2022/02/03 13:48:57;;;;;;;114.30;35.00;;;;;;;2.40;79.69;98734.07;25260;1312;3051899;-72
2022/02/03 13:51:31;;;;;;;120.20;34.60;;;;;;;2.33;79.70;98734.34;25182;1312;3027058;-70
2022/02/03 14:14:16;;;;;;;104.00;31.90;;;;;;;2.06;80.35;98747.43;25136;1312;3068905;-72
2022/02/03 14:22:07;;;;;;;114.60;35.80;;;;;;;2.64;78.60;98747.98;25257;1312;3053839;-75
2022/02/03 14:27:26;;;;;;;106.10;35.90;;;;;;;2.57;78.05;98743.25;25165;1315;3049519;-67
2022/02/03 14:30:03;;;;;;;102.90;34.90;;;;;;;2.42;78.41;98744.17;25123;1316;3026525;-70
2022/02/03 14:32:38;;;;;;;92.10;32.70;;;;;;;2.35;78.42;98743.91;25190;1315;3050346;-73
2022/02/03 14:35:09;;;;;;;84.40;28.40;;;;;;;2.02;79.94;98753.83;25157;1315;3069608;-70
2022/02/03 14:37:59;;;;;;;83.60;28.80;;;;;;;2.63;79.30;98755.45;25246;1316;3026329;-73
2022/02/03 14:42:58;;;;;;;102.60;34.60;;;;;;;2.91;76.85;98758.15;25169;1315;3026526;-67
2022/02/03 14:45:27;;;;;;;106.40;35.10;;;;;;;2.71;77.12;98766.73;25167;1315;3048987;-70
2022/02/03 14:47:56;;;;;;;108.50;37.30;;;;;;;2.41;78.14;98762.87;25130;1315;3026618;-74
2022/02/03 14:50:25;;;;;;;119.30;40.80;;;;;;;2.23;78.42;98762.34;25115;1315;3070228;-70
2022/02/03 14:53:13;;;;;;;109.00;37.60;;;;;;;2.10;79.26;98761.44;25150;1315;3026262;-72
2022/02/03 14:58:31;;;;;;;77.30;28.00;;;;;;;2.65;78.05;98767.51;25167;1315;3070991;-70
2022/02/03 15:01:00;;;;;;;95.00;32.50;;;;;;;2.92;76.50;98767.27;25131;1315;3028972;-74
2022/02/03 15:03:30;;;;;;;89.40;32.90;;;;;;;2.92;76.45;98773.16;25130;1315;3026623;-70
2022/02/03 15:06:08;;;;;;;85.80;31.70;;;;;;;2.91;76.29;98778.55;25141;1315;3026281;-71
2022/02/03 15:13:41;;;;;;;118.40;36.40;;;;;;;2.43;77.47;98784.56;25154;1315;3050903;-73
2022/02/03 15:16:11;;;;;;;116.80;38.40;;;;;;;2.17;78.05;98788.66;25185;1315;3055611;-73
2022/02/03 15:18:42;;;;;;;92.90;28.20;;;;;;;2.09;78.66;98789.83;25153;1316;3026454;-72
2022/02/03 15:21:11;;;;;;;85.30;31.10;;;;;;;2.70;77.38;98790.27;25154;1315;3027247;-75
2022/02/03 15:23:40;;;;;;;78.70;27.70;;;;;;;3.24;75.22;98794.20;25156;1315;3058271;-72
2022/02/03 15:26:09;;;;;;;70.50;25.00;;;;;;;3.37;74.14;98791.73;25133;1316;3026525;-68
2022/02/03 15:28:40;;;;;;;62.20;24.10;;;;;;;3.30;73.72;98793.23;25193;1315;3052359;-71
2022/02/03 15:31:11;;;;;;;84.40;30.00;;;;;;;2.96;74.01;98799.50;25160;1315;3026613;-73
2022/02/03 15:33:46;;;;;;;68.00;26.00;;;;;;;2.65;75.00;98796.02;25178;1315;3027331;-73
2022/02/03 15:36:15;;;;;;;91.30;33.10;;;;;;;2.49;75.83;98796.12;25160;1314;3053665;-71
2022/02/03 15:38:48;;;;;;;86.40;30.00;;;;;;;2.28;76.70;98797.07;25071;1315;3027486;-70
2022/02/03 15:41:27;;;;;;;84.60;28.90;;;;;;;2.16;76.62;98798.20;25095;1315;3028950;-72
2022/02/03 15:43:58;;;;;;;69.00;24.70;;;;;;;1.97;77.62;98805.80;25163;1314;3049597;-69
2022/02/03 15:46:30;;;;;;;86.90;29.80;;;;;;;2.54;76.72;98803.70;25138;1315;3027578;-69
2022/02/03 16:03:26;;;;;;;95.50;35.10;;;;;;;2.03;77.35;98820.95;25085;1315;3070173;-72
2022/02/03 16:17:04;;;;;;;76.10;26.50;;;;;;;2.64;75.03;98815.77;25080;1316;3050118;-72
2022/02/03 16:25:11;;;;;;;90.40;29.80;;;;;;;1.94;77.06;98819.72;25166;1315;3071383;-71
2022/02/03 16:52:46;;;;;;;110.10;34.90;;;;;;;2.16;76.78;98828.10;25174;1315;3054641;-71
2022/02/03 16:55:20;;;;;;;101.40;31.20;;;;;;;2.02;77.53;98828.77;25159;1315;3052230;-71
2022/02/03 16:57:51;;;;;;;81.20;24.20;;;;;;;1.82;78.15;98829.29;25122;1315;3026499;-73
2022/02/03 17:00:20;;;;;;;106.60;32.30;;;;;;;2.37;76.73;98820.92;25172;1315;3028463;-73
2022/02/03 17:02:51;;;;;;;101.10;31.50;;;;;;;2.99;74.63;98819.08;25128;1315;3027049;-67
2022/02/03 17:05:20;;;;;;;115.30;34.40;;;;;;;3.05;73.55;98824.72;25227;1315;3056968;-72
2022/02/03 17:07:50;;;;;;;113.90;35.30;;;;;;;2.84;73.63;98827.77;25181;1316;3026824;-70
2022/02/03 17:10:19;;;;;;;113.40;35.40;;;;;;;2.77;73.99;98829.13;25151;1315;3026385;-73
2022/02/03 17:12:48;;;;;;;110.30;37.40;;;;;;;2.59;74.55;98829.45;25212;1315;3027799;-74
2022/02/03 17:15:20;;;;;;;111.90;38.00;;;;;;;2.37;74.91;98828.53;25189;1315;3049080;-71
2022/02/03 17:17:52;;;;;;;131.90;40.30;;;;;;;2.22;75.40;98834.29;25484;1315;3026950;-71
2022/02/03 17:20:27;;;;;;;101.10;33.50;;;;;;;2.16;76.04;98829.50;25709;1315;3026762;-71
2022/02/03 17:22:57;;;;;;;78.00;24.20;;;;;;;1.84;77.11;98838.05;25837;1315;3068378;-73
2022/02/03 17:25:40;;;;;;;72.90;23.30;;;;;;;2.35;76.51;98829.81;25811;1315;3026134;-70
2022/02/03 17:28:27;;;;;;;66.30;24.90;;;;;;;2.85;74.26;98829.13;25597;1315;3052413;-73
2022/02/03 17:31:02;;;;;;;69.40;25.80;;;;;;;2.99;73.75;98820.14;25197;1316;3052711;-73
2022/02/03 17:54:06;;;;;;;37.70;14.60;;;;;;;2.56;74.82;98816.42;25143;1315;3052678;-71
2022/02/03 18:19:32;;;;;;;50.40;19.30;;;;;;;1.77;74.94;98815.14;25157;1315;3056013;-70
2022/02/03 18:37:27;;;;;;;43.70;18.40;;;;;;;2.16;73.89;98810.48;25001;1315;3068430;-71
2022/02/03 18:53:29;;;;;;;46.80;20.20;;;;;;;2.24;75.51;98800.67;25092;1315;3026389;-74
2022/02/03 18:58:52;;;;;;;57.60;22.70;;;;;;;2.99;72.48;98798.31;25111;1315;3052013;-71
2022/02/03 19:10:22;;;;;;;56.00;25.00;;;;;;;1.95;75.39;98801.05;25064;1318;3048777;-70
2022/02/03 19:21:23;;;;;;;53.80;24.10;;;;;;;2.35;75.44;98797.48;25080;1318;3052209;-68
2022/02/03 19:26:49;;;;;;;62.00;27.30;;;;;;;2.73;73.26;98801.92;25098;1318;3026516;-70
2022/02/03 20:08:59;;;;;;;67.80;27.80;;;;;;;1.57;76.25;98824.66;25168;1315;3054969;-74
2022/02/03 20:11:29;;;;;;;61.10;23.40;;;;;;;1.49;77.19;98822.47;25149;1315;3051926;-75
2022/02/03 20:13:58;;;;;;;58.00;24.90;;;;;;;2.10;75.59;98811.90;25081;1318;3028979;-67
2022/02/03 20:16:27;;;;;;;68.40;26.20;;;;;;;2.58;73.52;98811.32;25094;1317;3026030;-69
2022/02/03 20:18:56;;;;;;;66.50;25.60;;;;;;;2.55;73.12;98810.05;25007;1318;3052312;-69
2022/02/03 20:21:29;;;;;;;70.90;27.60;;;;;;;2.36;73.34;98815.09;25098;1316;3026357;-70
2022/02/03 20:23:58;;;;;;;75.60;29.00;;;;;;;2.20;73.72;98811.88;25115;1316;3055537;-71
2022/02/03 20:26:27;;;;;;;64.30;27.00;;;;;;;1.98;74.67;98819.39;25084;1318;3026247;-72
2022/02/03 20:28:56;;;;;;;84.50;29.50;;;;;;;1.80;75.00;98826.96;25123;1318;3052330;-70
2022/02/03 20:31:25;;;;;;;75.80;30.00;;;;;;;1.58;75.78;98824.95;25079;1318;3026304;-70
2022/02/03 20:33:54;;;;;;;82.30;32.30;;;;;;;1.47;76.62;98824.10;25133;1316;3055779;-71
2022/02/03 20:36:23;;;;;;;60.80;24.10;;;;;;;1.46;76.96;98828.97;25100;1318;3026802;-70
2022/02/03 20:38:52;;;;;;;72.70;27.30;;;;;;;1.99;75.87;98827.84;25118;1318;3053795;-71
2022/02/03 20:41:22;;;;;;;88.90;30.40;;;;;;;2.41;74.47;98817.65;25096;1318;3026811;-69
2022/02/03 20:43:51;;;;;;;80.60;27.50;;;;;;;2.57;73.65;98822.27;25079;1316;3052115;-71
2022/02/03 20:46:22;;;;;;;90.50;34.00;;;;;;;2.19;74.68;98821.77;25130;1316;3026865;-69
2022/02/03 20:48:53;;;;;;;88.90;31.90;;;;;;;2.00;75.40;98824.19;25125;1318;3048285;-65
2022/02/03 20:51:22;;;;;;;86.00;30.90;;;;;;;1.70;76.69;98826.64;25072;1318;3026731;-70
2022/02/03 20:53:51;;;;;;;101.20;33.60;;;;;;;1.56;77.23;98827.11;25109;1316;3070007;-67
2022/02/03 20:56:21;;;;;;;99.40;32.90;;;;;;;1.35;78.23;98828.81;24778;1318;3027525;-68
2022/02/03 20:58:50;;;;;;;86.30;30.60;;;;;;;1.37;78.79;98826.71;25112;1316;3050655;-71
2022/02/03 21:01:28;;;;;;;88.80;33.10;;;;;;;1.73;77.97;98827.55;25092;1318;3027205;-72
2022/02/03 21:04:04;;;;;;;103.00;34.30;;;;;;;2.10;76.75;98822.44;25091;1318;3049531;-70
2022/02/03 21:06:34;;;;;;;93.30;33.40;;;;;;;2.06;76.83;98826.41;25115;1318;3055503;-69
2022/02/03 21:09:05;;;;;;;69.50;26.70;;;;;;;1.90;76.88;98833.54;25073;1316;3028380;-69
2022/02/03 21:11:35;;;;;;;103.10;34.80;;;;;;;1.66;77.76;98833.49;25078;1318;3026401;-70
2022/02/03 21:14:04;;;;;;;96.40;34.30;;;;;;;1.52;78.27;98833.10;25077;1318;3026559;-69
2022/02/03 21:16:43;;;;;;;88.10;29.30;;;;;;;1.36;78.72;98828.96;25093;1318;3054229;-70
2022/02/03 21:19:12;;;;;;;92.30;30.30;;;;;;;1.16;80.05;98833.08;25079;1318;3026728;-70
2022/02/03 21:21:41;;;;;;;74.00;26.70;;;;;;;1.63;79.50;98829.26;25053;1319;3027086;-70
2022/02/03 21:24:18;;;;;;;105.00;36.50;;;;;;;1.78;78.66;98824.09;25156;1318;3055498;-71
2022/02/03 21:26:47;;;;;;;103.60;35.30;;;;;;;1.89;78.12;98828.55;25095;1316;3027530;-72
2022/02/03 21:29:16;;;;;;;123.30;42.30;;;;;;;1.77;78.14;98826.55;25158;1316;3053935;-67
2022/02/03 21:31:45;;;;;;;138.90;42.50;;;;;;;1.56;78.79;98832.27;25227;1318;3026713;-72
2022/02/03 21:34:20;;;;;;;122.10;37.80;;;;;;;1.43;78.99;98832.00;25318;1317;3049438;-69
2022/02/03 21:36:54;;;;;;;122.20;41.10;;;;;;;1.20;80.00;98837.59;25344;1318;3053460;-69
2022/02/03 21:39:23;;;;;;;100.30;35.50;;;;;;;1.19;80.66;98838.52;25264;1319;3052987;-68
2022/02/03 21:41:52;;;;;;;141.40;43.80;;;;;;;1.68;79.51;98837.56;25132;1317;3026435;-71
2022/02/03 21:44:22;;;;;;;126.90;40.50;;;;;;;1.89;78.40;98835.80;25088;1318;3052029;-66
2022/02/03 21:46:51;;;;;;;114.70;36.60;;;;;;;1.89;78.51;98833.04;25099;1316;3027255;-68
2022/02/03 21:49:24;;;;;;;102.00;33.70;;;;;;;1.86;78.04;98831.94;25125;1316;3028105;-70
2022/02/03 21:51:55;;;;;;;127.30;41.90;;;;;;;1.33;79.72;98834.58;25065;1318;3026122;-69
2022/02/03 21:54:24;;;;;;;149.70;43.50;;;;;;;1.30;80.36;98839.70;25114;1318;3050894;-70
2022/02/03 21:56:53;;;;;;;112.50;37.70;;;;;;;1.23;80.72;98840.08;25096;1319;3026128;-69
2022/02/03 21:59:22;;;;;;;101.60;32.90;;;;;;;1.78;79.54;98834.46;25103;1318;3027656;-68
2022/02/03 22:01:51;;;;;;;117.70;37.90;;;;;;;1.95;78.05;98829.55;25094;1318;3051656;-68
2022/02/03 22:04:20;;;;;;;97.40;33.60;;;;;;;1.92;77.42;98832.56;25092;1318;3026399;-69
2022/02/03 22:06:49;;;;;;;78.50;30.10;;;;;;;1.55;77.70;98832.81;25103;1316;3050597;-72
2022/02/03 22:09:18;;;;;;;69.10;24.00;;;;;;;1.40;77.80;98825.91;25110;1317;3026531;-69
2022/02/03 22:11:47;;;;;;;78.90;28.40;;;;;;;1.31;77.85;98826.72;25109;1319;3048398;-72
2022/02/03 22:14:16;;;;;;;76.30;29.70;;;;;;;1.18;78.27;98833.20;25009;1318;3026651;-67
2022/02/03 22:16:48;;;;;;;63.60;22.10;;;;;;;1.12;78.33;98834.06;25093;1318;3028844;-67
2022/02/03 22:19:54;;;;;;;76.30;28.20;;;;;;;1.82;77.16;98828.45;31745;1318;3027148;-67
2022/02/03 22:47:19;;;;;;;56.50;24.30;;;;;;;1.50;73.77;98834.04;25154;1314;3071156;-68
2022/02/03 22:49:45;;;;;;;50.40;21.90;;;;;;;1.16;74.41;98838.39;25138;1315;3051737;-67
2022/02/03 22:52:16;;;;;;;53.90;22.40;;;;;;;1.05;74.80;98841.52;25176;1315;3028258;-69